sensor_id;sensor_type;location;lat;lon;timestamp;temperature;humidity
44671;DHT22;48397;53.016;-2.260;2023-04-06T00:00:27;9.50;99.90
44671;DHT22;48397;53.016;-2.260;2023-04-06T00:02:55;9.50;99.90
44671;DHT22;48397;53.016;-2.260;2023-04-06T00:05:24;9.50;99.90
44671;DHT22;48397;53.016;-2.260;2023-04-06T00:07:52;9.50;99.90
44671;DHT22;48397;53.016;-2.260;2023-04-06T00:10:21;9.50;99.90
44671;DHT22;48397;53.016;-2.260;2023-04-06T00:12:49;9.50;99.90
44671;DHT22;48397;53.016;-2.260;2023-04-06T00:15:17;9.50;99.90
44671;DHT22;48397;53.016;-2.260;2023-04-06T00:17:45;9.50;99.90
44671;DHT22;48397;53.016;-2.260;2023-04-06T00:20:13;9.60;99.90
44671;DHT22;48397;53.016;-2.260;2023-04-06T00:22:40;9.60;99.90
44671;DHT22;48397;53.016;-2.260;2023-04-06T00:25:08;9.60;99.90
44671;DHT22;48397;53.016;-2.260;2023-04-06T00:27:38;9.60;99.90
44671;DHT22;48397;53.016;-2.260;2023-04-06T00:30:07;9.70;99.90
44671;DHT22;48397;53.016;-2.260;2023-04-06T00:32:35;9.70;99.90
44671;DHT22;48397;53.016;-2.260;2023-04-06T00:35:05;9.70;99.90
44671;DHT22;48397;53.016;-2.260;2023-04-06T00:37:34;9.70;99.90
44671;DHT22;48397;53.016;-2.260;2023-04-06T00:40:02;9.70;99.90
44671;DHT22;48397;53.016;-2.260;2023-04-06T00:42:30;9.70;99.90
44671;DHT22;48397;53.016;-2.260;2023-04-06T00:44:59;9.70;99.90
44671;DHT22;48397;53.016;-2.260;2023-04-06T00:47:28;9.70;99.90
44671;DHT22;48397;53.016;-2.260;2023-04-06T00:52:24;9.70;99.90
44671;DHT22;48397;53.016;-2.260;2023-04-06T00:54:53;9.70;99.90
44671;DHT22;48397;53.016;-2.260;2023-04-06T00:57:22;9.70;99.90
44671;DHT22;48397;53.016;-2.260;2023-04-06T01:02:24;9.70;99.90
44671;DHT22;48397;53.016;-2.260;2023-04-06T01:04:53;9.70;99.90
44671;DHT22;48397;53.016;-2.260;2023-04-06T01:07:31;9.70;99.90
44671;DHT22;48397;53.016;-2.260;2023-04-06T01:10:26;9.70;99.90
44671;DHT22;48397;53.016;-2.260;2023-04-06T01:13:22;9.70;99.90
44671;DHT22;48397;53.016;-2.260;2023-04-06T01:15:56;9.70;99.90
44671;DHT22;48397;53.016;-2.260;2023-04-06T01:18:41;9.80;99.90
44671;DHT22;48397;53.016;-2.260;2023-04-06T01:21:15;9.80;99.90
44671;DHT22;48397;53.016;-2.260;2023-04-06T01:24:00;9.80;99.90
44671;DHT22;48397;53.016;-2.260;2023-04-06T01:26:36;9.90;99.90
44671;DHT22;48397;53.016;-2.260;2023-04-06T01:29:07;9.80;99.90
44671;DHT22;48397;53.016;-2.260;2023-04-06T01:31:35;9.80;99.90
44671;DHT22;48397;53.016;-2.260;2023-04-06T01:34:04;9.90;99.90
44671;DHT22;48397;53.016;-2.260;2023-04-06T01:36:33;9.90;99.90
44671;DHT22;48397;53.016;-2.260;2023-04-06T01:39:15;9.90;99.90
44671;DHT22;48397;53.016;-2.260;2023-04-06T01:44:12;9.90;99.90
44671;DHT22;48397;53.016;-2.260;2023-04-06T01:46:40;9.90;99.90
44671;DHT22;48397;53.016;-2.260;2023-04-06T01:49:09;10.00;99.90
44671;DHT22;48397;53.016;-2.260;2023-04-06T01:51:40;10.00;99.90
44671;DHT22;48397;53.016;-2.260;2023-04-06T01:54:12;10.00;99.90
44671;DHT22;48397;53.016;-2.260;2023-04-06T01:57:05;10.00;99.90
44671;DHT22;48397;53.016;-2.260;2023-04-06T01:59:41;10.00;99.90
44671;DHT22;48397;53.016;-2.260;2023-04-06T02:02:35;10.10;99.90
44671;DHT22;48397;53.016;-2.260;2023-04-06T02:05:08;10.10;99.90
44671;DHT22;48397;53.016;-2.260;2023-04-06T02:07:37;10.10;99.90
44671;DHT22;48397;53.016;-2.260;2023-04-06T02:10:11;10.10;99.90
44671;DHT22;48397;53.016;-2.260;2023-04-06T02:12:39;10.10;99.90
44671;DHT22;48397;53.016;-2.260;2023-04-06T02:15:11;10.10;99.90
44671;DHT22;48397;53.016;-2.260;2023-04-06T02:17:42;10.10;99.90
44671;DHT22;48397;53.016;-2.260;2023-04-06T02:20:10;10.10;99.90
44671;DHT22;48397;53.016;-2.260;2023-04-06T02:22:37;10.10;99.90
44671;DHT22;48397;53.016;-2.260;2023-04-06T02:25:05;10.10;99.90
44671;DHT22;48397;53.016;-2.260;2023-04-06T02:27:33;10.10;99.90
44671;DHT22;48397;53.016;-2.260;2023-04-06T02:30:02;10.10;99.90
44671;DHT22;48397;53.016;-2.260;2023-04-06T02:32:30;10.00;99.90
44671;DHT22;48397;53.016;-2.260;2023-04-06T02:34:58;10.00;99.90
44671;DHT22;48397;53.016;-2.260;2023-04-06T02:37:26;10.10;99.90
44671;DHT22;48397;53.016;-2.260;2023-04-06T02:39:53;10.10;99.90
44671;DHT22;48397;53.016;-2.260;2023-04-06T02:42:22;10.00;99.90
44671;DHT22;48397;53.016;-2.260;2023-04-06T02:44:51;10.00;99.90
44671;DHT22;48397;53.016;-2.260;2023-04-06T02:47:22;10.00;99.90
44671;DHT22;48397;53.016;-2.260;2023-04-06T02:49:51;10.00;99.90
44671;DHT22;48397;53.016;-2.260;2023-04-06T02:52:19;10.00;99.90
44671;DHT22;48397;53.016;-2.260;2023-04-06T02:54:47;10.10;99.90
44671;DHT22;48397;53.016;-2.260;2023-04-06T02:57:22;10.10;99.90
44671;DHT22;48397;53.016;-2.260;2023-04-06T02:59:50;10.10;99.90
44671;DHT22;48397;53.016;-2.260;2023-04-06T03:02:23;10.10;99.90
44671;DHT22;48397;53.016;-2.260;2023-04-06T03:04:56;10.10;99.90
44671;DHT22;48397;53.016;-2.260;2023-04-06T03:07:30;10.10;99.90
44671;DHT22;48397;53.016;-2.260;2023-04-06T03:09:58;10.10;99.90
44671;DHT22;48397;53.016;-2.260;2023-04-06T03:12:26;10.00;99.90
44671;DHT22;48397;53.016;-2.260;2023-04-06T03:15:19;10.00;99.90
44671;DHT22;48397;53.016;-2.260;2023-04-06T03:17:51;10.00;99.90
44671;DHT22;48397;53.016;-2.260;2023-04-06T03:20:32;10.00;99.90
44671;DHT22;48397;53.016;-2.260;2023-04-06T03:23:00;10.00;99.90
44671;DHT22;48397;53.016;-2.260;2023-04-06T03:25:31;10.00;99.90
44671;DHT22;48397;53.016;-2.260;2023-04-06T03:28:03;10.00;99.90
44671;DHT22;48397;53.016;-2.260;2023-04-06T03:30:35;9.90;99.90
44671;DHT22;48397;53.016;-2.260;2023-04-06T03:33:02;10.00;99.90
44671;DHT22;48397;53.016;-2.260;2023-04-06T03:35:35;9.90;99.90
44671;DHT22;48397;53.016;-2.260;2023-04-06T03:38:05;9.90;99.90
44671;DHT22;48397;53.016;-2.260;2023-04-06T03:40:32;9.90;99.90
44671;DHT22;48397;53.016;-2.260;2023-04-06T03:43:00;9.90;99.90
44671;DHT22;48397;53.016;-2.260;2023-04-06T03:47:58;10.00;99.90
44671;DHT22;48397;53.016;-2.260;2023-04-06T03:50:26;9.90;99.90
44671;DHT22;48397;53.016;-2.260;2023-04-06T03:52:53;9.90;99.90
44671;DHT22;48397;53.016;-2.260;2023-04-06T03:55:21;9.90;99.90
44671;DHT22;48397;53.016;-2.260;2023-04-06T03:57:49;9.90;99.90
44671;DHT22;48397;53.016;-2.260;2023-04-06T04:00:18;9.90;99.90
44671;DHT22;48397;53.016;-2.260;2023-04-06T04:02:46;9.90;99.90
44671;DHT22;48397;53.016;-2.260;2023-04-06T04:05:14;9.90;99.90
44671;DHT22;48397;53.016;-2.260;2023-04-06T04:07:42;9.90;99.90
44671;DHT22;48397;53.016;-2.260;2023-04-06T04:10:11;5.90;99.90
44671;DHT22;48397;53.016;-2.260;2023-04-06T04:12:39;9.90;99.90
44671;DHT22;48397;53.016;-2.260;2023-04-06T04:15:07;9.90;99.90
44671;DHT22;48397;53.016;-2.260;2023-04-06T04:17:35;9.90;99.90
44671;DHT22;48397;53.016;-2.260;2023-04-06T04:20:03;9.90;99.90
44671;DHT22;48397;53.016;-2.260;2023-04-06T04:25:00;9.90;99.90
44671;DHT22;48397;53.016;-2.260;2023-04-06T04:27:30;9.90;99.90
44671;DHT22;48397;53.016;-2.260;2023-04-06T04:29:57;9.90;99.90
44671;DHT22;48397;53.016;-2.260;2023-04-06T04:32:26;9.90;99.90
44671;DHT22;48397;53.016;-2.260;2023-04-06T04:34:56;9.90;99.90
44671;DHT22;48397;53.016;-2.260;2023-04-06T04:37:34;9.90;99.90
44671;DHT22;48397;53.016;-2.260;2023-04-06T04:40:04;10.00;99.90
44671;DHT22;48397;53.016;-2.260;2023-04-06T04:42:42;10.00;99.90
44671;DHT22;48397;53.016;-2.260;2023-04-06T04:45:16;10.00;99.90
44671;DHT22;48397;53.016;-2.260;2023-04-06T04:47:44;10.00;99.90
44671;DHT22;48397;53.016;-2.260;2023-04-06T04:50:14;8.80;99.90
44671;DHT22;48397;53.016;-2.260;2023-04-06T04:55:17;10.00;99.90
44671;DHT22;48397;53.016;-2.260;2023-04-06T04:57:48;10.00;99.90
44671;DHT22;48397;53.016;-2.260;2023-04-06T05:00:18;9.90;99.90
44671;DHT22;48397;53.016;-2.260;2023-04-06T05:02:47;9.90;99.90
44671;DHT22;48397;53.016;-2.260;2023-04-06T05:05:23;9.90;99.90
44671;DHT22;48397;53.016;-2.260;2023-04-06T05:07:51;9.90;99.90
44671;DHT22;48397;53.016;-2.260;2023-04-06T05:10:44;9.90;99.90
44671;DHT22;48397;53.016;-2.260;2023-04-06T05:13:13;9.90;99.90
44671;DHT22;48397;53.016;-2.260;2023-04-06T05:15:40;9.90;99.90
44671;DHT22;48397;53.016;-2.260;2023-04-06T05:18:19;9.90;99.90
44671;DHT22;48397;53.016;-2.260;2023-04-06T05:20:47;9.80;99.90
44671;DHT22;48397;53.016;-2.260;2023-04-06T05:23:15;9.90;99.90
44671;DHT22;48397;53.016;-2.260;2023-04-06T05:25:44;9.90;99.90
44671;DHT22;48397;53.016;-2.260;2023-04-06T05:28:19;9.80;99.90
44671;DHT22;48397;53.016;-2.260;2023-04-06T05:30:46;9.80;99.90
44671;DHT22;48397;53.016;-2.260;2023-04-06T05:33:15;9.80;99.90
44671;DHT22;48397;53.016;-2.260;2023-04-06T05:35:56;11.90;99.90
44671;DHT22;48397;53.016;-2.260;2023-04-06T05:38:24;9.80;99.90
44671;DHT22;48397;53.016;-2.260;2023-04-06T05:40:54;9.80;99.90
44671;DHT22;48397;53.016;-2.260;2023-04-06T05:43:25;9.80;99.90
44671;DHT22;48397;53.016;-2.260;2023-04-06T05:45:55;9.70;99.90
44671;DHT22;48397;53.016;-2.260;2023-04-06T05:48:23;9.70;99.90
44671;DHT22;48397;53.016;-2.260;2023-04-06T05:50:51;9.70;99.90
44671;DHT22;48397;53.016;-2.260;2023-04-06T05:53:23;9.70;99.90
44671;DHT22;48397;53.016;-2.260;2023-04-06T05:55:57;9.70;99.90
44671;DHT22;48397;53.016;-2.260;2023-04-06T05:58:26;9.60;99.90
44671;DHT22;48397;53.016;-2.260;2023-04-06T06:01:01;9.60;99.90
44671;DHT22;48397;53.016;-2.260;2023-04-06T06:03:37;9.60;99.90
44671;DHT22;48397;53.016;-2.260;2023-04-06T06:06:06;9.50;99.90
44671;DHT22;48397;53.016;-2.260;2023-04-06T06:08:45;9.50;99.90
44671;DHT22;48397;53.016;-2.260;2023-04-06T06:11:16;9.50;99.90
44671;DHT22;48397;53.016;-2.260;2023-04-06T06:13:44;9.50;99.90
44671;DHT22;48397;53.016;-2.260;2023-04-06T06:16:12;9.50;99.90
44671;DHT22;48397;53.016;-2.260;2023-04-06T06:18:45;9.40;99.90
44671;DHT22;48397;53.016;-2.260;2023-04-06T06:21:13;9.50;99.90
44671;DHT22;48397;53.016;-2.260;2023-04-06T06:23:41;9.50;99.90
44671;DHT22;48397;53.016;-2.260;2023-04-06T06:26:13;9.50;99.90
44671;DHT22;48397;53.016;-2.260;2023-04-06T06:28:40;9.50;99.90
44671;DHT22;48397;53.016;-2.260;2023-04-06T06:31:10;10.40;99.90
44671;DHT22;48397;53.016;-2.260;2023-04-06T06:33:38;9.40;99.90
44671;DHT22;48397;53.016;-2.260;2023-04-06T06:36:06;9.30;99.90
44671;DHT22;48397;53.016;-2.260;2023-04-06T06:38:34;9.30;99.90
44671;DHT22;48397;53.016;-2.260;2023-04-06T06:43:33;9.30;99.90
44671;DHT22;48397;53.016;-2.260;2023-04-06T06:46:06;9.30;99.90
44671;DHT22;48397;53.016;-2.260;2023-04-06T06:48:34;9.20;99.90
44671;DHT22;48397;53.016;-2.260;2023-04-06T06:51:02;9.20;99.90
44671;DHT22;48397;53.016;-2.260;2023-04-06T06:53:30;9.30;99.90
44671;DHT22;48397;53.016;-2.260;2023-04-06T06:55:58;9.20;99.90
44671;DHT22;48397;53.016;-2.260;2023-04-06T06:58:26;9.20;99.90
44671;DHT22;48397;53.016;-2.260;2023-04-06T07:00:58;9.30;99.90
44671;DHT22;48397;53.016;-2.260;2023-04-06T07:03:27;9.20;99.90
44671;DHT22;48397;53.016;-2.260;2023-04-06T07:05:55;9.20;99.90
44671;DHT22;48397;53.016;-2.260;2023-04-06T07:08:24;9.10;99.90
44671;DHT22;48397;53.016;-2.260;2023-04-06T07:10:53;9.10;99.90
44671;DHT22;48397;53.016;-2.260;2023-04-06T07:13:20;9.10;99.90
44671;DHT22;48397;53.016;-2.260;2023-04-06T07:15:53;9.10;99.90
44671;DHT22;48397;53.016;-2.260;2023-04-06T07:18:22;9.10;99.90
44671;DHT22;48397;53.016;-2.260;2023-04-06T07:20:50;9.10;99.90
44671;DHT22;48397;53.016;-2.260;2023-04-06T07:23:19;9.20;99.90
44671;DHT22;48397;53.016;-2.260;2023-04-06T07:25:46;9.20;99.90
44671;DHT22;48397;53.016;-2.260;2023-04-06T07:28:14;9.20;99.90
44671;DHT22;48397;53.016;-2.260;2023-04-06T07:30:45;9.20;99.90
44671;DHT22;48397;53.016;-2.260;2023-04-06T07:33:13;9.30;99.90
44671;DHT22;48397;53.016;-2.260;2023-04-06T07:35:41;9.30;99.90
44671;DHT22;48397;53.016;-2.260;2023-04-06T07:38:10;9.30;99.90
44671;DHT22;48397;53.016;-2.260;2023-04-06T07:40:39;9.20;99.90
44671;DHT22;48397;53.016;-2.260;2023-04-06T07:43:07;9.40;99.90
44671;DHT22;48397;53.016;-2.260;2023-04-06T07:45:35;9.40;99.90
44671;DHT22;48397;53.016;-2.260;2023-04-06T07:48:03;9.30;99.90
44671;DHT22;48397;53.016;-2.260;2023-04-06T07:50:32;9.40;99.90
44671;DHT22;48397;53.016;-2.260;2023-04-06T07:55:29;9.50;99.90
44671;DHT22;48397;53.016;-2.260;2023-04-06T07:57:57;9.40;99.90
44671;DHT22;48397;53.016;-2.260;2023-04-06T08:00:25;9.40;99.90
44671;DHT22;48397;53.016;-2.260;2023-04-06T08:02:53;9.40;99.90
44671;DHT22;48397;53.016;-2.260;2023-04-06T08:05:21;8.40;99.90
44671;DHT22;48397;53.016;-2.260;2023-04-06T08:07:48;9.40;99.90
44671;DHT22;48397;53.016;-2.260;2023-04-06T08:10:16;9.40;99.90
44671;DHT22;48397;53.016;-2.260;2023-04-06T08:12:44;9.40;99.90
44671;DHT22;48397;53.016;-2.260;2023-04-06T08:15:12;9.50;99.90
44671;DHT22;48397;53.016;-2.260;2023-04-06T08:17:40;9.40;99.90
44671;DHT22;48397;53.016;-2.260;2023-04-06T08:20:08;9.60;99.90
44671;DHT22;48397;53.016;-2.260;2023-04-06T08:22:37;9.60;99.90
44671;DHT22;48397;53.016;-2.260;2023-04-06T08:25:05;9.70;99.90
44671;DHT22;48397;53.016;-2.260;2023-04-06T08:27:33;9.60;99.90
44671;DHT22;48397;53.016;-2.260;2023-04-06T08:30:00;10.90;99.90
44671;DHT22;48397;53.016;-2.260;2023-04-06T08:32:28;9.60;99.90
44671;DHT22;48397;53.016;-2.260;2023-04-06T08:34:56;9.80;99.90
44671;DHT22;48397;53.016;-2.260;2023-04-06T08:37:24;9.90;99.90
44671;DHT22;48397;53.016;-2.260;2023-04-06T08:39:54;9.90;99.90
44671;DHT22;48397;53.016;-2.260;2023-04-06T08:42:25;9.90;99.90
44671;DHT22;48397;53.016;-2.260;2023-04-06T08:44:55;9.90;99.90
44671;DHT22;48397;53.016;-2.260;2023-04-06T08:47:23;9.90;99.90
44671;DHT22;48397;53.016;-2.260;2023-04-06T08:49:52;10.10;99.90
44671;DHT22;48397;53.016;-2.260;2023-04-06T08:52:21;10.20;99.90
44671;DHT22;48397;53.016;-2.260;2023-04-06T08:54:49;10.20;99.90
44671;DHT22;48397;53.016;-2.260;2023-04-06T08:57:17;10.40;99.90
44671;DHT22;48397;53.016;-2.260;2023-04-06T08:59:45;10.40;99.90
44671;DHT22;48397;53.016;-2.260;2023-04-06T09:02:17;10.30;99.90
44671;DHT22;48397;53.016;-2.260;2023-04-06T09:04:47;10.30;99.90
44671;DHT22;48397;53.016;-2.260;2023-04-06T09:07:16;10.10;99.90
44671;DHT22;48397;53.016;-2.260;2023-04-06T09:09:45;10.00;99.90
44671;DHT22;48397;53.016;-2.260;2023-04-06T09:12:28;10.00;99.90
44671;DHT22;48397;53.016;-2.260;2023-04-06T09:14:58;10.00;99.90
44671;DHT22;48397;53.016;-2.260;2023-04-06T09:17:31;9.90;99.90
44671;DHT22;48397;53.016;-2.260;2023-04-06T09:20:03;10.00;99.90
44671;DHT22;48397;53.016;-2.260;2023-04-06T09:22:41;10.00;99.90
44671;DHT22;48397;53.016;-2.260;2023-04-06T09:25:19;10.10;99.90
44671;DHT22;48397;53.016;-2.260;2023-04-06T09:27:49;10.30;99.90
44671;DHT22;48397;53.016;-2.260;2023-04-06T09:30:27;10.40;99.90
44671;DHT22;48397;53.016;-2.260;2023-04-06T09:32:56;10.60;99.90
44671;DHT22;48397;53.016;-2.260;2023-04-06T09:35:25;10.70;99.90
44671;DHT22;48397;53.016;-2.260;2023-04-06T09:37:57;10.60;99.90
44671;DHT22;48397;53.016;-2.260;2023-04-06T09:40:25;10.60;99.90
44671;DHT22;48397;53.016;-2.260;2023-04-06T09:42:53;10.60;99.90
44671;DHT22;48397;53.016;-2.260;2023-04-06T09:45:21;10.80;99.90
44671;DHT22;48397;53.016;-2.260;2023-04-06T09:47:50;10.80;99.90
44671;DHT22;48397;53.016;-2.260;2023-04-06T09:50:19;10.90;99.90
44671;DHT22;48397;53.016;-2.260;2023-04-06T09:52:50;10.80;99.90
44671;DHT22;48397;53.016;-2.260;2023-04-06T09:55:25;10.90;99.90
44671;DHT22;48397;53.016;-2.260;2023-04-06T09:58:05;11.00;99.90
44671;DHT22;48397;53.016;-2.260;2023-04-06T10:00:50;11.10;99.90
44671;DHT22;48397;53.016;-2.260;2023-04-06T10:03:34;11.10;99.90
44671;DHT22;48397;53.016;-2.260;2023-04-06T10:06:12;10.80;99.90
44671;DHT22;48397;53.016;-2.260;2023-04-06T10:08:41;10.80;99.90
44671;DHT22;48397;53.016;-2.260;2023-04-06T10:11:11;11.00;99.90
44671;DHT22;48397;53.016;-2.260;2023-04-06T10:13:38;11.00;99.90
44671;DHT22;48397;53.016;-2.260;2023-04-06T10:16:08;11.20;99.90
44671;DHT22;48397;53.016;-2.260;2023-04-06T10:18:37;11.20;99.90
44671;DHT22;48397;53.016;-2.260;2023-04-06T10:21:09;11.20;99.90
44671;DHT22;48397;53.016;-2.260;2023-04-06T10:23:55;11.00;99.90
44671;DHT22;48397;53.016;-2.260;2023-04-06T10:26:25;10.90;99.90
44671;DHT22;48397;53.016;-2.260;2023-04-06T10:28:52;10.90;99.90
44671;DHT22;48397;53.016;-2.260;2023-04-06T10:31:26;10.70;99.90
44671;DHT22;48397;53.016;-2.260;2023-04-06T10:33:59;10.70;99.90
44671;DHT22;48397;53.016;-2.260;2023-04-06T10:36:32;10.60;99.90
44671;DHT22;48397;53.016;-2.260;2023-04-06T10:39:05;10.60;99.90
44671;DHT22;48397;53.016;-2.260;2023-04-06T10:41:36;10.70;99.90
44671;DHT22;48397;53.016;-2.260;2023-04-06T10:44:04;10.60;99.90
44671;DHT22;48397;53.016;-2.260;2023-04-06T10:46:33;10.70;99.90
44671;DHT22;48397;53.016;-2.260;2023-04-06T10:49:12;10.70;99.90
44671;DHT22;48397;53.016;-2.260;2023-04-06T10:51:40;10.80;99.90
44671;DHT22;48397;53.016;-2.260;2023-04-06T10:54:09;11.40;99.90
44671;DHT22;48397;53.016;-2.260;2023-04-06T10:56:38;11.40;99.90
44671;DHT22;48397;53.016;-2.260;2023-04-06T10:59:06;11.30;99.90
44671;DHT22;48397;53.016;-2.260;2023-04-06T11:01:35;11.30;99.90
44671;DHT22;48397;53.016;-2.260;2023-04-06T11:04:03;11.20;99.90
44671;DHT22;48397;53.016;-2.260;2023-04-06T11:06:31;11.20;99.90
44671;DHT22;48397;53.016;-2.260;2023-04-06T11:09:00;10.80;99.90
44671;DHT22;48397;53.016;-2.260;2023-04-06T11:11:27;10.80;99.90
44671;DHT22;48397;53.016;-2.260;2023-04-06T11:13:57;10.90;99.90
44671;DHT22;48397;53.016;-2.260;2023-04-06T11:16:31;11.20;99.90
44671;DHT22;48397;53.016;-2.260;2023-04-06T11:19:02;11.20;99.90
44671;DHT22;48397;53.016;-2.260;2023-04-06T11:21:41;11.30;99.90
44671;DHT22;48397;53.016;-2.260;2023-04-06T11:24:19;11.30;99.90
44671;DHT22;48397;53.016;-2.260;2023-04-06T11:26:54;11.30;99.90
44671;DHT22;48397;53.016;-2.260;2023-04-06T11:31:52;11.60;99.90
44671;DHT22;48397;53.016;-2.260;2023-04-06T11:34:22;11.40;99.90
44671;DHT22;48397;53.016;-2.260;2023-04-06T11:37:01;11.30;99.90
44671;DHT22;48397;53.016;-2.260;2023-04-06T11:39:51;11.30;99.90
44671;DHT22;48397;53.016;-2.260;2023-04-06T11:42:24;11.30;99.90
44671;DHT22;48397;53.016;-2.260;2023-04-06T11:44:57;11.40;99.90
44671;DHT22;48397;53.016;-2.260;2023-04-06T11:47:35;11.60;99.90
44671;DHT22;48397;53.016;-2.260;2023-04-06T11:50:08;11.50;99.90
44671;DHT22;48397;53.016;-2.260;2023-04-06T11:52:38;11.60;99.90
44671;DHT22;48397;53.016;-2.260;2023-04-06T11:55:11;11.70;99.90
44671;DHT22;48397;53.016;-2.260;2023-04-06T11:57:41;11.90;99.90
44671;DHT22;48397;53.016;-2.260;2023-04-06T12:00:10;12.20;99.90
44671;DHT22;48397;53.016;-2.260;2023-04-06T12:02:38;12.40;99.90
44671;DHT22;48397;53.016;-2.260;2023-04-06T12:05:07;12.40;99.90
44671;DHT22;48397;53.016;-2.260;2023-04-06T12:07:36;12.40;99.90
44671;DHT22;48397;53.016;-2.260;2023-04-06T12:10:04;12.30;99.90
44671;DHT22;48397;53.016;-2.260;2023-04-06T12:12:32;12.20;99.90
44671;DHT22;48397;53.016;-2.260;2023-04-06T12:15:00;12.10;99.90
44671;DHT22;48397;53.016;-2.260;2023-04-06T12:17:27;11.90;99.90
44671;DHT22;48397;53.016;-2.260;2023-04-06T12:19:55;11.90;99.90
44671;DHT22;48397;53.016;-2.260;2023-04-06T12:22:34;11.90;99.90
44671;DHT22;48397;53.016;-2.260;2023-04-06T12:25:02;11.80;99.90
44671;DHT22;48397;53.016;-2.260;2023-04-06T12:27:30;11.90;99.90
44671;DHT22;48397;53.016;-2.260;2023-04-06T12:29:58;11.90;99.90
44671;DHT22;48397;53.016;-2.260;2023-04-06T12:32:25;11.80;99.90
44671;DHT22;48397;53.016;-2.260;2023-04-06T12:34:53;11.70;99.90
44671;DHT22;48397;53.016;-2.260;2023-04-06T12:37:21;11.80;99.90
44671;DHT22;48397;53.016;-2.260;2023-04-06T12:39:49;11.70;99.90
44671;DHT22;48397;53.016;-2.260;2023-04-06T12:42:17;12.00;99.90
44671;DHT22;48397;53.016;-2.260;2023-04-06T12:44:44;12.00;99.90
44671;DHT22;48397;53.016;-2.260;2023-04-06T12:47:14;11.90;99.90
44671;DHT22;48397;53.016;-2.260;2023-04-06T12:49:43;11.70;99.90
44671;DHT22;48397;53.016;-2.260;2023-04-06T12:52:11;11.50;99.90
44671;DHT22;48397;53.016;-2.260;2023-04-06T12:54:39;11.40;99.90
44671;DHT22;48397;53.016;-2.260;2023-04-06T12:57:09;11.40;99.90
44671;DHT22;48397;53.016;-2.260;2023-04-06T12:59:36;11.40;99.90
44671;DHT22;48397;53.016;-2.260;2023-04-06T13:02:07;11.40;99.90
44671;DHT22;48397;53.016;-2.260;2023-04-06T13:04:37;11.40;99.90
44671;DHT22;48397;53.016;-2.260;2023-04-06T13:07:05;11.60;99.90
44671;DHT22;48397;53.016;-2.260;2023-04-06T13:09:33;12.10;99.90
44671;DHT22;48397;53.016;-2.260;2023-04-06T13:12:01;12.50;99.90
44671;DHT22;48397;53.016;-2.260;2023-04-06T13:14:29;12.60;99.90
44671;DHT22;48397;53.016;-2.260;2023-04-06T13:16:57;12.60;99.90
44671;DHT22;48397;53.016;-2.260;2023-04-06T13:19:26;12.70;99.90
44671;DHT22;48397;53.016;-2.260;2023-04-06T13:21:54;12.50;99.90
44671;DHT22;48397;53.016;-2.260;2023-04-06T13:24:22;12.60;99.90
44671;DHT22;48397;53.016;-2.260;2023-04-06T13:26:53;12.80;99.90
44671;DHT22;48397;53.016;-2.260;2023-04-06T13:29:21;13.00;99.90
44671;DHT22;48397;53.016;-2.260;2023-04-06T13:34:17;13.90;99.90
44671;DHT22;48397;53.016;-2.260;2023-04-06T13:36:45;13.80;99.90
44671;DHT22;48397;53.016;-2.260;2023-04-06T13:39:13;14.00;99.90
44671;DHT22;48397;53.016;-2.260;2023-04-06T13:41:41;14.10;99.90
44671;DHT22;48397;53.016;-2.260;2023-04-06T13:44:09;14.10;99.90
44671;DHT22;48397;53.016;-2.260;2023-04-06T13:46:37;14.10;99.90
44671;DHT22;48397;53.016;-2.260;2023-04-06T13:49:05;13.80;99.90
44671;DHT22;48397;53.016;-2.260;2023-04-06T13:51:34;13.50;99.90
44671;DHT22;48397;53.016;-2.260;2023-04-06T13:54:01;13.60;99.90
44671;DHT22;48397;53.016;-2.260;2023-04-06T13:56:29;14.10;99.90
44671;DHT22;48397;53.016;-2.260;2023-04-06T13:58:57;14.30;99.90
44671;DHT22;48397;53.016;-2.260;2023-04-06T14:01:26;14.00;99.90
44671;DHT22;48397;53.016;-2.260;2023-04-06T14:03:54;14.00;99.90
44671;DHT22;48397;53.016;-2.260;2023-04-06T14:06:22;12.80;99.90
44671;DHT22;48397;53.016;-2.260;2023-04-06T14:08:59;12.70;99.90
44671;DHT22;48397;53.016;-2.260;2023-04-06T14:11:28;12.70;99.90
44671;DHT22;48397;53.016;-2.260;2023-04-06T14:13:55;12.80;99.90
44671;DHT22;48397;53.016;-2.260;2023-04-06T14:16:25;12.50;99.90
44671;DHT22;48397;53.016;-2.260;2023-04-06T14:18:54;12.50;99.90
44671;DHT22;48397;53.016;-2.260;2023-04-06T14:21:25;12.20;99.90
44671;DHT22;48397;53.016;-2.260;2023-04-06T14:23:54;12.70;99.90
44671;DHT22;48397;53.016;-2.260;2023-04-06T14:26:26;13.30;99.90
44671;DHT22;48397;53.016;-2.260;2023-04-06T14:28:54;13.30;99.90
44671;DHT22;48397;53.016;-2.260;2023-04-06T14:31:21;13.50;99.90
44671;DHT22;48397;53.016;-2.260;2023-04-06T14:33:53;13.10;99.90
44671;DHT22;48397;53.016;-2.260;2023-04-06T14:36:20;12.80;99.90
44671;DHT22;48397;53.016;-2.260;2023-04-06T14:38:49;13.00;99.90
44671;DHT22;48397;53.016;-2.260;2023-04-06T14:41:18;13.30;99.90
44671;DHT22;48397;53.016;-2.260;2023-04-06T14:43:47;13.90;99.90
44671;DHT22;48397;53.016;-2.260;2023-04-06T14:46:15;13.90;99.90
44671;DHT22;48397;53.016;-2.260;2023-04-06T14:48:47;14.80;99.90
44671;DHT22;48397;53.016;-2.260;2023-04-06T14:51:16;14.90;99.90
44671;DHT22;48397;53.016;-2.260;2023-04-06T14:53:44;15.10;99.90
44671;DHT22;48397;53.016;-2.260;2023-04-06T14:56:19;15.10;99.90
44671;DHT22;48397;53.016;-2.260;2023-04-06T14:58:48;15.10;99.90
44671;DHT22;48397;53.016;-2.260;2023-04-06T15:01:20;15.20;99.90
44671;DHT22;48397;53.016;-2.260;2023-04-06T15:03:51;16.00;99.90
44671;DHT22;48397;53.016;-2.260;2023-04-06T15:06:19;15.90;99.90
44671;DHT22;48397;53.016;-2.260;2023-04-06T15:08:48;15.90;99.90
44671;DHT22;48397;53.016;-2.260;2023-04-06T15:11:17;15.80;99.90
44671;DHT22;48397;53.016;-2.260;2023-04-06T15:13:45;15.50;99.90
44671;DHT22;48397;53.016;-2.260;2023-04-06T15:16:13;15.20;99.90
44671;DHT22;48397;53.016;-2.260;2023-04-06T15:18:42;15.20;99.90
44671;DHT22;48397;53.016;-2.260;2023-04-06T15:21:11;15.20;99.90
44671;DHT22;48397;53.016;-2.260;2023-04-06T15:23:39;15.40;99.90
44671;DHT22;48397;53.016;-2.260;2023-04-06T15:26:06;15.80;99.90
44671;DHT22;48397;53.016;-2.260;2023-04-06T15:28:34;15.50;99.90
44671;DHT22;48397;53.016;-2.260;2023-04-06T15:31:02;15.60;99.90
44671;DHT22;48397;53.016;-2.260;2023-04-06T15:33:33;15.60;99.90
44671;DHT22;48397;53.016;-2.260;2023-04-06T15:36:05;15.80;99.90
44671;DHT22;48397;53.016;-2.260;2023-04-06T15:38:36;15.70;99.90
44671;DHT22;48397;53.016;-2.260;2023-04-06T15:41:05;15.70;99.90
44671;DHT22;48397;53.016;-2.260;2023-04-06T15:43:33;15.80;99.90
44671;DHT22;48397;53.016;-2.260;2023-04-06T15:46:01;15.90;99.90
44671;DHT22;48397;53.016;-2.260;2023-04-06T15:48:31;16.10;99.90
44671;DHT22;48397;53.016;-2.260;2023-04-06T15:50:59;16.10;99.90
44671;DHT22;48397;53.016;-2.260;2023-04-06T15:53:27;15.90;99.90
44671;DHT22;48397;53.016;-2.260;2023-04-06T15:56:03;15.80;99.90
44671;DHT22;48397;53.016;-2.260;2023-04-06T15:58:32;15.70;99.90
44671;DHT22;48397;53.016;-2.260;2023-04-06T16:01:00;15.70;99.90
44671;DHT22;48397;53.016;-2.260;2023-04-06T16:03:28;15.70;99.90
44671;DHT22;48397;53.016;-2.260;2023-04-06T16:05:56;15.80;99.90